Time;durP1;ratioP1;P1;durP2;ratioP2;P2;SDS_P1;SDS_P2;PMS_P1;PMS_P2;Temp;Humidity;BMP_temperature;BMP_pressure;BME280_temperature;BME280_humidity;BME280_pressure;Samples;Min_cycle;Max_cycle;Signal;HPM_P1;HPM_P2
2023/08/07 00:00:05;;;;;;;0.30;0.30;;;14.00;99.90;;;;;;4991636;28;20192;-52
2023/08/07 00:02:32;;;;;;;2.10;0.50;;;14.00;99.90;;;;;;4987213;28;20666;-53
2023/08/07 00:04:59;;;;;;;1.17;0.50;;;14.00;99.90;;;;;;4993892;28;20231;-53
2023/08/07 00:07:27;;;;;;;0.30;0.30;;;14.10;99.90;;;;;;4986078;28;20270;-53
2023/08/07 00:09:54;;;;;;;1.03;0.70;;;14.10;99.90;;;;;;4989882;28;20223;-53
2023/08/07 00:12:21;;;;;;;0.77;0.63;;;14.10;99.90;;;;;;4990951;28;20733;-52
2023/08/07 00:14:50;;;;;;;0.60;0.60;;;14.10;99.90;;;;;;4988604;28;20196;-52
2023/08/07 00:17:17;;;;;;;0.40;0.40;;;14.10;99.90;;;;;;4986264;28;20222;-53
2023/08/07 00:19:44;;;;;;;0.57;0.30;;;14.00;99.90;;;;;;4988597;28;20674;-53
2023/08/07 00:22:11;;;;;;;0.60;0.40;;;14.00;99.90;;;;;;4979853;28;20267;-53
2023/08/07 00:24:39;;;;;;;0.70;0.50;;;13.90;99.90;;;;;;4971834;28;20204;-53
2023/08/07 00:27:06;;;;;;;0.73;0.43;;;13.90;99.90;;;;;;4972261;28;20201;-53
2023/08/07 00:29:33;;;;;;;0.67;0.60;;;13.90;99.90;;;;;;4974579;28;20488;-53
2023/08/07 00:32:00;;;;;;;0.80;0.80;;;13.80;99.90;;;;;;4989012;28;20286;-53
2023/08/07 00:34:27;;;;;;;0.50;0.50;;;13.80;99.90;;;;;;4991413;28;20200;-53
2023/08/07 00:36:54;;;;;;;0.47;0.47;;;13.80;99.90;;;;;;4991407;28;20293;-53
2023/08/07 00:39:21;;;;;;;1.40;0.43;;;13.80;99.90;;;;;;4991162;28;20200;-52
2023/08/07 00:41:49;;;;;;;0.83;0.43;;;13.80;99.90;;;;;;4991380;28;20203;-53
2023/08/07 00:44:16;;;;;;;1.23;0.53;;;13.80;99.90;;;;;;4983380;28;20196;-53
2023/08/07 00:46:44;;;;;;;2.47;0.67;;;13.70;99.90;;;;;;4988204;28;20673;-53
2023/08/07 00:49:13;;;;;;;1.43;0.50;;;13.70;99.90;;;;;;4984028;28;20337;-52
2023/08/07 00:51:41;;;;;;;0.50;0.50;;;13.70;99.90;;;;;;4987869;28;20200;-53
2023/08/07 00:54:10;;;;;;;0.47;0.47;;;13.70;99.90;;;;;;4990821;28;20255;-53
2023/08/07 00:56:38;;;;;;;0.67;0.50;;;13.60;99.90;;;;;;4983439;28;20315;-52
2023/08/07 00:59:06;;;;;;;1.43;0.37;;;13.60;99.90;;;;;;4990910;28;20200;-53
2023/08/07 01:01:33;;;;;;;1.83;0.53;;;13.60;99.90;;;;;;4983479;28;20211;-52
2023/08/07 01:04:00;;;;;;;1.03;0.50;;;13.70;99.90;;;;;;4994805;28;20195;-53
2023/08/07 01:06:27;;;;;;;1.33;1.10;;;13.60;99.90;;;;;;4994786;28;20227;-52
2023/08/07 01:08:55;;;;;;;0.43;0.43;;;13.60;99.90;;;;;;4993824;28;20200;-53
2023/08/07 01:11:34;;;;;;;0.63;0.40;;;13.60;99.90;;;;;;4988802;28;20667;-53
2023/08/07 01:14:08;;;;;;;0.37;0.37;;;13.60;99.90;;;;;;4993809;28;20207;-53
2023/08/07 01:16:41;;;;;;;0.40;0.40;;;13.60;99.90;;;;;;4990477;28;20219;-52
2023/08/07 01:19:14;;;;;;;0.73;0.57;;;13.60;99.90;;;;;;4975533;28;20255;-53
2023/08/07 01:21:49;;;;;;;0.40;0.37;;;13.60;99.90;;;;;;4980342;28;20568;-53
2023/08/07 01:24:16;;;;;;;0.40;0.40;;;13.40;99.90;;;;;;4984643;28;20262;-52
2023/08/07 01:26:46;;;;;;;0.83;0.30;;;13.30;99.90;;;;;;4994977;28;20224;-53
2023/08/07 01:29:18;;;;;;;0.40;0.40;;;13.40;99.90;;;;;;4989845;28;20204;-53
2023/08/07 01:31:46;;;;;;;0.50;0.40;;;13.40;99.90;;;;;;4991139;28;20196;-52
2023/08/07 01:34:18;;;;;;;1.30;0.40;;;13.30;99.90;;;;;;4990500;28;20209;-52
2023/08/07 01:36:49;;;;;;;0.53;0.50;;;13.20;99.90;;;;;;4984664;28;20235;-53
2023/08/07 01:39:17;;;;;;;2.10;1.60;;;13.20;99.90;;;;;;4994650;28;20196;-52
2023/08/07 01:41:44;;;;;;;0.60;0.60;;;13.20;99.90;;;;;;4989772;28;20255;-52
2023/08/07 01:44:11;;;;;;;1.40;0.40;;;13.20;99.90;;;;;;4988786;28;20266;-52
2023/08/07 01:46:38;;;;;;;1.03;0.40;;;13.10;99.90;;;;;;4987286;28;20223;-52
2023/08/07 01:49:05;;;;;;;1.07;0.70;;;13.20;99.90;;;;;;4994037;28;20200;-53
2023/08/07 01:51:32;;;;;;;2.10;0.50;;;13.20;99.90;;;;;;4993916;28;20219;-53
2023/08/07 01:54:00;;;;;;;0.77;0.50;;;13.20;99.90;;;;;;4990972;28;20804;-53
2023/08/07 01:56:27;;;;;;;1.10;0.50;;;13.30;99.90;;;;;;4989267;28;20720;-52
2023/08/07 01:58:54;;;;;;;0.60;0.60;;;13.30;99.90;;;;;;4993764;28;20203;-52
2023/08/07 02:01:21;;;;;;;0.30;0.30;;;13.30;99.90;;;;;;4994414;28;20207;-53
2023/08/07 02:03:47;;;;;;;0.50;0.40;;;13.20;99.90;;;;;;4994021;28;20207;-52
2023/08/07 02:06:14;;;;;;;0.57;0.57;;;13.30;99.90;;;;;;4992669;28;20652;-52
2023/08/07 02:08:41;;;;;;;1.90;0.57;;;13.30;99.90;;;;;;4984978;28;20274;-52
2023/08/07 02:11:10;;;;;;;0.63;0.63;;;13.30;99.90;;;;;;4985838;28;20770;-53
2023/08/07 02:13:36;;;;;;;0.53;0.20;;;13.30;99.90;;;;;;4991056;28;20235;-53
2023/08/07 02:16:04;;;;;;;0.77;0.40;;;13.30;99.90;;;;;;4992918;28;20294;-52
2023/08/07 02:18:31;;;;;;;2.03;0.97;;;13.30;99.90;;;;;;4987669;28;20268;-53
2023/08/07 02:20:57;;;;;;;0.87;0.40;;;13.30;99.90;;;;;;4992413;28;20249;-51
2023/08/07 02:23:24;;;;;;;1.77;0.60;;;13.40;99.90;;;;;;4986004;28;20728;-53
2023/08/07 02:25:52;;;;;;;0.40;0.40;;;13.40;99.90;;;;;;4991374;28;20278;-53
2023/08/07 02:28:20;;;;;;;0.70;0.50;;;13.40;99.90;;;;;;4993766;28;20269;-53
2023/08/07 02:30:48;;;;;;;1.33;0.70;;;13.40;99.90;;;;;;4991923;28;20708;-53
2023/08/07 02:33:15;;;;;;;0.40;0.40;;;13.40;99.90;;;;;;4986317;28;20236;-53
2023/08/07 02:35:43;;;;;;;0.60;0.60;;;13.40;99.90;;;;;;4992792;28;20231;-53
2023/08/07 02:38:10;;;;;;;1.53;0.47;;;13.40;99.90;;;;;;4981316;28;20196;-52
2023/08/07 02:40:37;;;;;;;0.63;0.60;;;13.40;99.90;;;;;;4980924;28;20207;-53
2023/08/07 02:43:04;;;;;;;0.70;0.70;;;13.40;99.90;;;;;;4989036;28;20267;-52
2023/08/07 02:45:32;;;;;;;1.13;0.63;;;13.40;99.90;;;;;;4988178;28;20764;-53
2023/08/07 02:47:59;;;;;;;0.60;0.60;;;13.30;99.90;;;;;;4993287;28;20282;-53
2023/08/07 02:50:27;;;;;;;0.50;0.50;;;13.40;99.90;;;;;;4982671;28;20301;-53
2023/08/07 02:52:54;;;;;;;3.50;1.10;;;13.30;99.90;;;;;;4987770;28;20250;-53
2023/08/07 02:55:21;;;;;;;0.60;0.60;;;13.30;99.90;;;;;;4986655;28;20224;-53
2023/08/07 02:57:48;;;;;;;2.83;0.70;;;13.30;99.90;;;;;;4985169;28;20737;-53
2023/08/07 03:00:15;;;;;;;0.63;0.47;;;13.30;99.90;;;;;;4992673;28;20203;-52
2023/08/07 03:02:43;;;;;;;0.80;0.40;;;13.30;99.90;;;;;;4985064;28;20195;-53
2023/08/07 03:05:11;;;;;;;2.80;1.90;;;13.30;99.90;;;;;;4973663;28;20303;-52
2023/08/07 03:07:38;;;;;;;0.63;0.63;;;13.20;99.90;;;;;;4977918;28;20200;-52
2023/08/07 03:10:07;;;;;;;0.53;0.53;;;13.20;99.90;;;;;;4992110;28;20262;-53
2023/08/07 03:12:34;;;;;;;0.70;0.60;;;13.20;99.90;;;;;;4992855;28;20234;-52
2023/08/07 03:15:01;;;;;;;0.93;0.70;;;13.10;99.90;;;;;;4993127;28;20652;-52
2023/08/07 03:17:27;;;;;;;0.80;0.40;;;13.00;99.90;;;;;;4988832;28;20201;-52
2023/08/07 03:19:56;;;;;;;0.77;0.77;;;13.00;99.90;;;;;;4990935;28;20262;-52
2023/08/07 03:22:23;;;;;;;1.70;0.70;;;12.90;99.90;;;;;;4992869;28;20278;-53
2023/08/07 03:24:50;;;;;;;0.57;0.57;;;12.90;99.90;;;;;;4992419;28;20247;-53
2023/08/07 03:27:17;;;;;;;0.60;0.57;;;12.80;99.90;;;;;;4992815;28;20250;-53
2023/08/07 03:29:43;;;;;;;0.60;0.60;;;12.80;99.90;;;;;;4992711;28;20583;-53
2023/08/07 03:32:10;;;;;;;0.70;0.53;;;12.70;99.90;;;;;;4986739;28;20270;-52
2023/08/07 03:34:37;;;;;;;0.60;0.53;;;12.70;99.90;;;;;;4992735;28;20203;-52
2023/08/07 03:37:06;;;;;;;2.03;1.13;;;12.70;99.90;;;;;;4983502;28;20200;-52
2023/08/07 03:39:33;;;;;;;0.80;0.63;;;12.60;99.90;;;;;;4992703;28;20264;-52
2023/08/07 03:42:00;;;;;;;1.30;0.67;;;12.60;99.90;;;;;;4992710;28;20199;-53
2023/08/07 03:44:27;;;;;;;1.43;0.70;;;12.60;99.90;;;;;;4985842;28;20211;-52
2023/08/07 03:46:56;;;;;;;0.70;0.63;;;12.60;99.90;;;;;;4990322;28;20280;-52
2023/08/07 03:49:23;;;;;;;2.20;0.67;;;12.60;99.90;;;;;;4985267;28;20662;-52
2023/08/07 03:51:50;;;;;;;1.00;0.50;;;12.60;99.90;;;;;;4984248;28;20657;-52
2023/08/07 03:54:18;;;;;;;1.23;0.50;;;12.60;99.90;;;;;;4985953;28;20257;-52
2023/08/07 03:56:46;;;;;;;0.77;0.70;;;12.60;99.90;;;;;;4992298;28;20227;-53
2023/08/07 03:59:13;;;;;;;1.40;0.60;;;12.60;99.90;;;;;;4990444;28;20207;-52
2023/08/07 04:01:40;;;;;;;0.53;0.50;;;12.60;99.90;;;;;;4988885;28;20260;-53
2023/08/07 04:04:07;;;;;;;2.30;0.60;;;12.60;99.90;;;;;;4991482;28;20207;-53
2023/08/07 04:06:34;;;;;;;1.77;0.60;;;12.60;99.90;;;;;;5040206;23;20226;-51
2023/08/07 04:09:03;;;;;;;0.43;0.43;;;12.60;99.90;;;;;;5031073;28;20239;-50
2023/08/07 04:11:33;;;;;;;0.90;0.90;;;12.70;99.90;;;;;;5030998;28;20395;-50
2023/08/07 04:14:00;;;;;;;0.50;0.50;;;12.60;99.90;;;;;;5031109;28;20606;-51
2023/08/07 04:16:27;;;;;;;0.57;0.57;;;12.60;99.90;;;;;;5041235;28;20248;-51
2023/08/07 04:18:54;;;;;;;1.80;0.50;;;12.60;99.90;;;;;;5027669;28;20264;-51
2023/08/07 04:21:20;;;;;;;1.47;0.53;;;12.60;99.90;;;;;;5024720;28;20328;-50
2023/08/07 04:23:47;;;;;;;0.53;0.53;;;12.50;99.90;;;;;;5020310;28;20612;-51
2023/08/07 04:26:15;;;;;;;0.73;0.40;;;12.50;99.90;;;;;;5011245;28;20658;-50
2023/08/07 04:28:43;;;;;;;0.77;0.50;;;12.60;99.90;;;;;;5011086;28;20221;-50
2023/08/07 04:31:10;;;;;;;0.70;0.70;;;12.60;99.90;;;;;;5011454;28;20285;-50
2023/08/07 04:33:37;;;;;;;1.37;0.90;;;12.60;99.90;;;;;;5020264;28;20278;-50
2023/08/07 04:36:05;;;;;;;1.13;1.13;;;12.60;99.90;;;;;;5019755;28;20226;-50
2023/08/07 04:38:32;;;;;;;1.63;1.10;;;12.60;99.90;;;;;;5015074;28;20216;-50
2023/08/07 04:40:58;;;;;;;0.63;0.63;;;12.70;99.90;;;;;;5015001;28;20197;-50
2023/08/07 04:43:25;;;;;;;0.60;0.60;;;12.60;99.90;;;;;;5014796;28;20227;-51
2023/08/07 04:45:54;;;;;;;0.73;0.73;;;12.70;99.90;;;;;;5014895;28;20622;-51
2023/08/07 04:48:24;;;;;;;0.50;0.50;;;12.70;99.90;;;;;;5021107;28;20256;-51
2023/08/07 04:50:51;;;;;;;0.50;0.40;;;12.80;99.90;;;;;;5034342;28;20304;-51
2023/08/07 04:53:19;;;;;;;1.40;0.60;;;12.70;99.90;;;;;;5014555;28;20211;-50
2023/08/07 04:55:47;;;;;;;0.80;0.80;;;12.70;99.90;;;;;;5015054;28;20313;-51
2023/08/07 04:58:13;;;;;;;0.97;0.40;;;12.80;99.90;;;;;;5033983;28;20253;-50
2023/08/07 05:00:40;;;;;;;2.00;0.50;;;12.80;99.90;;;;;;5034574;28;20198;-50
2023/08/07 05:03:09;;;;;;;0.30;0.30;;;12.80;99.90;;;;;;5032998;28;20202;-50
2023/08/07 05:05:36;;;;;;;0.90;0.90;;;12.80;99.90;;;;;;5034231;28;20229;-51
2023/08/07 05:08:03;;;;;;;1.13;0.30;;;12.80;99.90;;;;;;5034194;28;20202;-50
2023/08/07 05:10:30;;;;;;;0.47;0.47;;;12.90;99.90;;;;;;5021095;28;20199;-51
2023/08/07 05:13:00;;;;;;;0.70;0.50;;;12.90;99.90;;;;;;5014334;28;20297;-51
2023/08/07 05:15:30;;;;;;;0.53;0.53;;;12.90;99.90;;;;;;5025342;28;20279;-50
2023/08/07 05:17:58;;;;;;;0.53;0.50;;;12.90;99.90;;;;;;5032110;28;20724;-51
2023/08/07 05:20:26;;;;;;;1.23;0.80;;;13.00;99.90;;;;;;5033579;28;20233;-50
2023/08/07 05:22:53;;;;;;;0.60;0.60;;;12.90;99.90;;;;;;5034070;28;20197;-51
2023/08/07 05:25:20;;;;;;;2.10;0.50;;;13.00;99.90;;;;;;5031456;28;20226;-50
2023/08/07 05:27:47;;;;;;;0.70;0.70;;;13.00;99.90;;;;;;5033861;28;20669;-51
2023/08/07 05:30:15;;;;;;;0.70;0.40;;;13.00;99.90;;;;;;5032229;28;20615;-50
2023/08/07 05:32:42;;;;;;;0.63;0.40;;;13.00;99.90;;;;;;5033483;28;20252;-51
2023/08/07 05:35:10;;;;;;;0.40;0.40;;;13.10;99.90;;;;;;5014359;28;20199;-50
2023/08/07 05:37:38;;;;;;;1.53;0.50;;;13.10;99.90;;;;;;5029023;28;20206;-50
2023/08/07 05:40:06;;;;;;;2.13;0.53;;;13.10;99.90;;;;;;5033844;28;20202;-50
2023/08/07 05:42:34;;;;;;;2.40;0.67;;;13.10;99.90;;;;;;5032056;28;20198;-50
2023/08/07 05:45:01;;;;;;;0.40;0.40;;;13.10;99.90;;;;;;5032740;28;20195;-50
2023/08/07 05:47:28;;;;;;;1.33;0.50;;;13.10;99.90;;;;;;5031477;28;20276;-51
2023/08/07 05:49:55;;;;;;;1.73;0.90;;;13.00;99.90;;;;;;5034381;28;20615;-51
2023/08/07 05:52:22;;;;;;;0.60;0.60;;;13.10;99.90;;;;;;5033248;28;20216;-51
2023/08/07 05:54:50;;;;;;;0.87;0.87;;;13.10;99.90;;;;;;5035591;28;20197;-50
2023/08/07 05:57:18;;;;;;;1.63;1.00;;;13.10;99.90;;;;;;5030011;28;20218;-50
2023/08/07 05:59:45;;;;;;;1.33;1.07;;;13.00;99.90;;;;;;5032554;28;20689;-50
2023/08/07 06:02:12;;;;;;;0.60;0.60;;;13.10;99.90;;;;;;5033879;28;20191;-50
2023/08/07 06:04:40;;;;;;;0.93;0.70;;;13.10;99.90;;;;;;5025491;28;20285;-51
2023/08/07 06:07:07;;;;;;;1.00;0.87;;;13.00;99.90;;;;;;5015914;28;20231;-51
2023/08/07 06:09:34;;;;;;;2.37;0.67;;;13.00;99.90;;;;;;5033236;28;20249;-51
2023/08/07 06:12:03;;;;;;;1.03;1.03;;;13.00;99.90;;;;;;5033138;28;20588;-50
2023/08/07 06:14:30;;;;;;;1.77;0.73;;;12.90;99.90;;;;;;5031285;28;20669;-50
2023/08/07 06:16:57;;;;;;;2.27;0.70;;;13.00;99.90;;;;;;5030889;28;20219;-50
2023/08/07 06:19:27;;;;;;;0.87;0.67;;;12.90;99.90;;;;;;5016978;28;20203;-50
2023/08/07 06:21:54;;;;;;;1.17;1.07;;;12.80;99.90;;;;;;5032957;28;20667;-50
2023/08/07 06:24:21;;;;;;;2.50;1.30;;;12.70;99.90;;;;;;5032862;28;20260;-50
2023/08/07 06:26:48;;;;;;;1.40;0.47;;;12.90;99.90;;;;;;5032737;28;20784;-50
2023/08/07 06:29:16;;;;;;;1.80;0.60;;;12.90;99.90;;;;;;5029636;28;20206;-51
2023/08/07 06:31:43;;;;;;;3.00;1.00;;;12.90;99.90;;;;;;5032574;28;20243;-51
2023/08/07 06:34:10;;;;;;;2.00;0.90;;;12.90;99.90;;;;;;5032555;28;20590;-51
2023/08/07 06:36:37;;;;;;;0.70;0.70;;;12.80;99.90;;;;;;5031337;28;20291;-51
2023/08/07 06:39:04;;;;;;;1.37;1.20;;;12.90;99.90;;;;;;5032399;28;20197;-50
2023/08/07 06:41:31;;;;;;;1.70;1.60;;;12.90;99.90;;;;;;5032381;28;20202;-50
2023/08/07 06:43:58;;;;;;;0.60;0.60;;;12.80;99.90;;;;;;5031654;28;20237;-50
2023/08/07 06:46:27;;;;;;;0.87;0.87;;;12.90;99.90;;;;;;5031245;28;20296;-50
2023/08/07 06:48:54;;;;;;;1.20;1.20;;;13.00;99.90;;;;;;5032526;28;20197;-50
2023/08/07 06:51:21;;;;;;;2.77;1.60;;;13.00;99.90;;;;;;5026279;28;20223;-50
2023/08/07 06:53:48;;;;;;;1.27;0.90;;;13.10;99.90;;;;;;5028637;28;20202;-50
2023/08/07 06:56:15;;;;;;;1.27;0.73;;;13.10;99.90;;;;;;5032305;28;20635;-51
2023/08/07 06:58:42;;;;;;;0.60;0.60;;;13.20;99.90;;;;;;5022279;28;20283;-50
2023/08/07 07:01:09;;;;;;;0.60;0.60;;;13.20;99.90;;;;;;5023928;28;20202;-50
2023/08/07 07:03:37;;;;;;;0.80;0.53;;;13.20;99.90;;;;;;5032016;28;20206;-51
2023/08/07 07:06:04;;;;;;;0.73;0.73;;;13.30;99.90;;;;;;5031905;28;20230;-50
2023/08/07 07:08:31;;;;;;;0.60;0.60;;;13.20;99.90;;;;;;5032047;28;20288;-50
2023/08/07 07:10:58;;;;;;;3.70;0.83;;;13.30;99.90;;;;;;5031278;28;20287;-50
2023/08/07 07:13:25;;;;;;;0.63;0.53;;;13.30;99.90;;;;;;5031336;28;20747;-51
2023/08/07 07:15:55;;;;;;;0.80;0.80;;;13.20;99.90;;;;;;5032007;28;20295;-50
2023/08/07 07:18:22;;;;;;;0.53;0.50;;;13.30;99.90;;;;;;5032152;28;20768;-50
2023/08/07 07:20:57;;;;;;;0.50;0.50;;;13.20;99.90;;;;;;5030460;28;20205;-50
2023/08/07 07:23:24;;;;;;;0.80;0.60;;;13.20;99.90;;;;;;5030151;28;20198;-50
2023/08/07 07:25:51;;;;;;;0.70;0.70;;;13.30;99.90;;;;;;5024278;28;20217;-50
2023/08/07 07:28:18;;;;;;;2.10;0.60;;;13.30;99.90;;;;;;5029526;28;20194;-50
2023/08/07 07:30:45;;;;;;;1.53;0.40;;;13.40;99.90;;;;;;5031528;28;20612;-50
2023/08/07 07:33:13;;;;;;;2.17;0.43;;;13.40;99.90;;;;;;5030745;28;20223;-51
2023/08/07 07:35:40;;;;;;;1.43;0.40;;;13.40;99.90;;;;;;5033988;28;20287;-50
2023/08/07 07:38:10;;;;;;;0.67;0.67;;;13.50;99.90;;;;;;5021461;28;20612;-51
2023/08/07 07:40:37;;;;;;;2.37;2.27;;;13.50;99.90;;;;;;5031587;28;20292;-51
2023/08/07 07:43:04;;;;;;;2.33;1.50;;;13.60;99.90;;;;;;5031341;28;20264;-50
2023/08/07 07:45:33;;;;;;;1.00;0.87;;;13.70;99.90;;;;;;5029503;28;20641;-50
2023/08/07 07:48:01;;;;;;;1.50;1.40;;;13.80;99.90;;;;;;5027923;28;20209;-50
2023/08/07 07:50:28;;;;;;;0.90;0.83;;;13.80;99.90;;;;;;5030572;28;20211;-50
2023/08/07 07:52:55;;;;;;;0.67;0.60;;;13.80;99.90;;;;;;5031101;28;20214;-50
2023/08/07 07:55:23;;;;;;;2.20;0.80;;;13.80;99.90;;;;;;5031211;28;20222;-50
2023/08/07 07:57:50;;;;;;;0.60;0.30;;;14.00;99.90;;;;;;5031404;28;20349;-50
2023/08/07 08:00:18;;;;;;;0.30;0.30;;;14.00;99.90;;;;;;5011675;28;20711;-51
2023/08/07 08:02:45;;;;;;;0.30;0.30;;;14.10;99.90;;;;;;5029880;28;20194;-50
2023/08/07 08:05:12;;;;;;;0.53;0.53;;;14.10;99.90;;;;;;5030761;28;20206;-50
2023/08/07 08:07:40;;;;;;;0.80;0.40;;;14.30;99.90;;;;;;5030157;28;20241;-50
2023/08/07 08:10:08;;;;;;;2.30;0.70;;;14.40;99.90;;;;;;5031242;28;20341;-50
2023/08/07 08:12:37;;;;;;;2.03;2.03;;;14.40;99.90;;;;;;5030761;28;20717;-50
2023/08/07 08:15:05;;;;;;;2.17;1.97;;;14.50;99.90;;;;;;5030873;28;20673;-50
2023/08/07 08:17:32;;;;;;;0.50;0.50;;;14.50;99.90;;;;;;5031176;28;20198;-50
2023/08/07 08:19:59;;;;;;;1.43;0.50;;;14.50;99.90;;;;;;5031007;28;20623;-51
2023/08/07 08:22:26;;;;;;;1.40;0.50;;;14.50;99.90;;;;;;5030417;28;20887;-51
2023/08/07 08:24:53;;;;;;;0.60;0.60;;;14.60;99.90;;;;;;5030904;28;20202;-51
2023/08/07 08:27:21;;;;;;;1.00;1.00;;;14.70;99.90;;;;;;5030438;28;20229;-50
2023/08/07 08:29:49;;;;;;;1.35;0.98;;;14.70;99.90;;;;;;5026581;28;20456;-51
2023/08/07 08:32:16;;;;;;;0.73;0.50;;;14.70;99.90;;;;;;5030425;28;20704;-49
2023/08/07 08:34:43;;;;;;;0.50;0.40;;;14.70;99.90;;;;;;5030638;28;20202;-50
2023/08/07 08:37:11;;;;;;;0.93;0.40;;;14.80;99.90;;;;;;5030229;28;20233;-49
2023/08/07 08:39:38;;;;;;;1.10;0.90;;;14.90;99.90;;;;;;5034032;28;20256;-49
2023/08/07 08:42:06;;;;;;;0.30;0.30;;;15.10;99.90;;;;;;5028029;28;20225;-51
2023/08/07 08:44:37;;;;;;;1.00;0.40;;;15.20;99.90;;;;;;5028898;28;20293;-58
2023/08/07 08:47:07;;;;;;;1.33;0.60;;;15.30;99.90;;;;;;5027435;28;20278;-57
2023/08/07 08:49:38;;;;;;;0.60;0.60;;;15.40;99.90;;;;;;5018167;28;20277;-57
2023/08/07 08:52:06;;;;;;;1.87;0.73;;;15.60;99.90;;;;;;5030645;28;20258;-58
2023/08/07 08:54:34;;;;;;;0.60;0.60;;;15.60;99.90;;;;;;5028116;28;20206;-50
2023/08/07 08:57:01;;;;;;;0.60;0.60;;;15.60;99.90;;;;;;5026003;28;20250;-50
2023/08/07 08:59:29;;;;;;;3.37;0.90;;;15.70;99.90;;;;;;5023716;28;20265;-49
2023/08/07 09:01:56;;;;;;;0.90;0.90;;;15.80;99.90;;;;;;5024506;28;20206;-50
2023/08/07 09:04:25;;;;;;;0.80;0.80;;;15.90;99.90;;;;;;5020103;28;20293;-50
2023/08/07 09:06:53;;;;;;;0.63;0.63;;;15.90;99.90;;;;;;5016167;28;20309;-50
2023/08/07 09:09:22;;;;;;;0.43;0.43;;;15.90;99.90;;;;;;5029062;28;20743;-50
2023/08/07 09:11:50;;;;;;;1.13;0.40;;;15.90;99.90;;;;;;5029680;28;20722;-50
2023/08/07 09:14:21;;;;;;;0.40;0.30;;;15.90;99.90;;;;;;5029219;28;20210;-50
2023/08/07 09:16:49;;;;;;;0.43;0.40;;;15.90;99.90;;;;;;5028940;28;20222;-50
2023/08/07 09:19:16;;;;;;;0.50;0.50;;;15.80;99.90;;;;;;5023649;28;20274;-50
2023/08/07 09:21:45;;;;;;;0.50;0.40;;;16.00;99.90;;;;;;5027442;28;20268;-50
2023/08/07 09:24:12;;;;;;;0.60;0.60;;;16.00;99.90;;;;;;5027928;28;20261;-50
2023/08/07 09:26:42;;;;;;;0.70;0.50;;;16.10;99.90;;;;;;5023443;28;20219;-50
2023/08/07 09:29:10;;;;;;;2.47;0.83;;;16.30;99.90;;;;;;5024427;28;20640;-50
2023/08/07 09:31:38;;;;;;;0.50;0.30;;;16.30;99.90;;;;;;5026023;28;20735;-50
2023/08/07 09:34:05;;;;;;;0.40;0.40;;;16.50;99.90;;;;;;5028649;28;20356;-50
2023/08/07 09:36:32;;;;;;;1.33;0.50;;;16.90;99.90;;;;;;5030352;28;20639;-51
2023/08/07 09:39:04;;;;;;;1.77;0.43;;;18.30;99.90;;;;;;5029218;28;20211;-51
2023/08/07 09:41:31;;;;;;;0.40;0.40;;;19.70;99.90;;;;;;5022257;28;20203;-51
2023/08/07 09:43:59;;;;;;;0.40;0.40;;;20.40;99.90;;;;;;5017897;28;20637;-50
2023/08/07 09:46:27;;;;;;;2.17;0.63;;;20.00;99.90;;;;;;5025095;28;20214;-51
2023/08/07 09:48:59;;;;;;;0.30;0.30;;;19.60;99.90;;;;;;5025965;28;20207;-51
2023/08/07 09:51:26;;;;;;;0.50;0.50;;;19.40;99.90;;;;;;5031426;28;20238;-51
2023/08/07 09:53:53;;;;;;;0.60;0.60;;;18.90;99.90;;;;;;5029947;28;20223;-51
2023/08/07 09:56:22;;;;;;;0.60;0.60;;;18.60;99.90;;;;;;5030976;28;20219;-50
2023/08/07 09:58:50;;;;;;;0.30;0.30;;;18.20;99.90;;;;;;5023741;28;20211;-51
2023/08/07 10:01:17;;;;;;;0.30;0.30;;;17.70;99.90;;;;;;5033175;28;20278;-50
2023/08/07 10:03:45;;;;;;;0.30;0.30;;;17.40;99.90;;;;;;5028060;28;20226;-51
2023/08/07 10:06:13;;;;;;;0.40;0.40;;;17.70;99.90;;;;;;5042164;23;20231;-52
2023/08/07 10:08:42;;;;;;;1.20;0.40;;;17.90;99.90;;;;;;5011188;28;20207;-51
2023/08/07 10:11:10;;;;;;;0.63;0.30;;;17.80;99.90;;;;;;5010522;28;20728;-51
2023/08/07 10:13:39;;;;;;;0.97;0.40;;;17.90;99.90;;;;;;5009112;28;20273;-51
2023/08/07 10:16:06;;;;;;;0.33;0.33;;;17.70;99.90;;;;;;5009487;28;20250;-51
2023/08/07 10:18:34;;;;;;;0.30;0.30;;;17.60;99.90;;;;;;5014325;28;20302;-58
2023/08/07 10:21:02;;;;;;;0.10;0.10;;;17.60;99.90;;;;;;5010440;28;20281;-61
2023/08/07 10:23:29;;;;;;;0.20;0.20;;;17.60;99.90;;;;;;5010645;28;20199;-61
2023/08/07 10:25:57;;;;;;;0.30;0.30;;;17.50;99.90;;;;;;5001167;28;21009;-60
2023/08/07 10:28:25;;;;;;;0.40;0.30;;;17.50;99.90;;;;;;5012611;28;20202;-59
2023/08/07 10:30:54;;;;;;;0.80;0.50;;;17.40;99.90;;;;;;5010742;28;20203;-58
2023/08/07 10:33:22;;;;;;;0.30;0.30;;;17.30;99.90;;;;;;5004833;28;20227;-58
2023/08/07 10:35:50;;;;;;;1.70;0.20;;;17.20;99.90;;;;;;5008715;28;20219;-58
2023/08/07 10:38:20;;;;;;;0.20;0.20;;;17.20;99.90;;;;;;4992764;28;20204;-52
2023/08/07 10:41:01;;;;;;;0.43;0.20;;;17.20;99.90;;;;;;4991929;28;20212;-51
2023/08/07 10:43:28;;;;;;;0.20;0.20;;;16.90;99.90;;;;;;4991423;28;20634;-52
2023/08/07 10:46:04;;;;;;;1.03;0.20;;;17.30;99.90;;;;;;4994226;28;20313;-51
2023/08/07 10:48:38;;;;;;;0.40;0.30;;;17.60;99.90;;;;;;5006093;28;20301;-51
2023/08/07 10:51:06;;;;;;;1.03;0.30;;;17.60;99.90;;;;;;5011421;28;20203;-51
2023/08/07 10:53:35;;;;;;;0.30;0.20;;;17.80;99.90;;;;;;5009413;28;20300;-59
2023/08/07 10:56:03;;;;;;;0.37;0.30;;;17.60;99.90;;;;;;5010891;28;20222;-62
2023/08/07 10:58:32;;;;;;;0.40;0.40;;;17.70;99.90;;;;;;5011192;28;20242;-61
2023/08/07 11:01:20;;;;;;;1.30;0.40;;;17.60;99.90;;;;;;5010445;28;20265;-64
2023/08/07 11:03:50;;;;;;;0.67;0.30;;;17.50;99.90;;;;;;5009819;28;20234;-63
2023/08/07 11:06:18;;;;;;;0.20;0.20;;;17.30;99.90;;;;;;5010789;28;20309;-63
2023/08/07 11:08:45;;;;;;;1.20;0.20;;;17.20;99.90;;;;;;5010815;28;20733;-65
2023/08/07 11:11:12;;;;;;;0.43;0.20;;;17.10;99.90;;;;;;5011183;28;20577;-62
2023/08/07 11:13:38;;;;;;;0.30;0.30;;;17.10;99.90;;;;;;5010858;28;20219;-59
2023/08/07 11:16:06;;;;;;;0.40;0.40;;;17.10;99.90;;;;;;5009747;28;20227;-60
2023/08/07 11:18:35;;;;;;;0.63;0.30;;;17.20;99.90;;;;;;5010666;28;20249;-60
2023/08/07 11:21:03;;;;;;;0.30;0.30;;;17.70;99.90;;;;;;5004141;28;20288;-60
2023/08/07 11:23:30;;;;;;;0.30;0.30;;;17.90;99.90;;;;;;5005066;28;20203;-59
2023/08/07 11:25:57;;;;;;;0.30;0.30;;;17.90;99.90;;;;;;5010769;28;20226;-58
2023/08/07 11:28:25;;;;;;;0.20;0.20;;;17.60;99.90;;;;;;5011094;28;20227;-59
2023/08/07 11:30:55;;;;;;;0.30;0.30;;;17.40;99.90;;;;;;5008707;28;20235;-58
2023/08/07 11:33:22;;;;;;;1.47;0.40;;;17.00;99.90;;;;;;5004052;28;20223;-59
2023/08/07 11:35:51;;;;;;;0.30;0.30;;;16.70;99.90;;;;;;5010745;28;20222;-61
2023/08/07 11:38:31;;;;;;;0.20;0.20;;;16.50;99.90;;;;;;5010750;28;20257;-61
2023/08/07 11:40:59;;;;;;;0.77;0.30;;;16.60;99.90;;;;;;5010554;28;20393;-59
2023/08/07 11:43:28;;;;;;;0.40;0.40;;;16.00;99.90;;;;;;5010241;28;20257;-62
2023/08/07 11:45:56;;;;;;;0.40;0.40;;;15.70;99.90;;;;;;5009153;28;20305;-60
2023/08/07 11:48:25;;;;;;;1.80;0.30;;;15.60;99.90;;;;;;5010220;28;20211;-60
2023/08/07 11:50:54;;;;;;;0.87;0.30;;;15.60;99.90;;;;;;5010491;28;20203;-61
2023/08/07 11:53:21;;;;;;;0.20;0.20;;;15.50;99.90;;;;;;5009943;28;20218;-59
2023/08/07 11:55:53;;;;;;;1.07;0.40;;;15.20;99.90;;;;;;5010987;28;20310;-60
2023/08/07 11:58:20;;;;;;;2.30;0.50;;;15.10;99.90;;;;;;5002023;28;20207;-60
2023/08/07 12:00:48;;;;;;;0.60;0.50;;;14.80;99.90;;;;;;5008582;28;20298;-60
2023/08/07 12:03:29;;;;;;;3.50;0.40;;;14.70;99.90;;;;;;5009127;28;20196;-59
2023/08/07 12:05:58;;;;;;;0.10;0.10;;;14.60;99.90;;;;;;5009267;28;20315;-59
2023/08/07 12:08:26;;;;;;;0.73;0.20;;;14.40;99.90;;;;;;5004297;28;20351;-60
2023/08/07 12:10:54;;;;;;;0.60;0.40;;;14.20;99.90;;;;;;5010394;28;20199;-59
2023/08/07 12:13:25;;;;;;;0.30;0.23;;;14.00;99.90;;;;;;5011549;28;20230;-60
2023/08/07 12:15:54;;;;;;;2.33;1.23;;;13.90;99.90;;;;;;5001803;28;20230;-59
2023/08/07 12:18:22;;;;;;;0.63;0.30;;;13.70;99.90;;;;;;5008955;28;20207;-58
2023/08/07 12:20:50;;;;;;;1.67;0.80;;;13.50;99.90;;;;;;4992551;28;20654;-61
2023/08/07 12:23:22;;;;;;;0.70;0.67;;;13.40;99.90;;;;;;4989986;28;20270;-62
2023/08/07 12:25:49;;;;;;;0.60;0.60;;;13.40;99.90;;;;;;4990428;28;20314;-57
2023/08/07 12:28:17;;;;;;;1.67;0.50;;;13.40;99.90;;;;;;4990309;28;20212;-59
2023/08/07 12:30:46;;;;;;;4.23;0.60;;;13.20;99.90;;;;;;4994509;28;20289;-61
2023/08/07 12:33:13;;;;;;;3.97;0.50;;;13.10;99.90;;;;;;5009481;28;20288;-56
2023/08/07 12:35:40;;;;;;;0.67;0.67;;;13.00;99.90;;;;;;5009698;28;20205;-58
2023/08/07 12:38:09;;;;;;;0.53;0.50;;;13.00;99.90;;;;;;5009994;28;20217;-57
2023/08/07 12:40:37;;;;;;;0.60;0.60;;;13.20;99.90;;;;;;5010087;28;20212;-58
2023/08/07 12:43:05;;;;;;;0.60;0.60;;;13.40;99.90;;;;;;5009766;28;20210;-60
2023/08/07 12:45:32;;;;;;;0.67;0.30;;;13.80;99.90;;;;;;5008853;28;20200;-57
2023/08/07 12:48:03;;;;;;;1.73;0.40;;;13.90;99.90;;;;;;5007170;28;20218;-57
2023/08/07 12:50:30;;;;;;;2.33;1.40;;;14.10;99.90;;;;;;4998777;28;20797;-58